sensor_id;sensor_type;location;lat;lon;timestamp;P1;durP1;ratioP1;P2;durP2;ratioP2
9906;SDS011;4992;51.628;6.664;2023-07-13T00:02:20;5.35;;;2.30;;
9906;SDS011;4992;51.628;6.664;2023-07-13T00:04:46;5.93;;;1.83;;
9906;SDS011;4992;51.628;6.664;2023-07-13T00:07:12;6.00;;;1.55;;
9906;SDS011;4992;51.628;6.664;2023-07-13T00:09:39;6.50;;;2.03;;
9906;SDS011;4992;51.628;6.664;2023-07-13T00:12:05;3.35;;;1.45;;
9906;SDS011;4992;51.628;6.664;2023-07-13T00:14:46;5.97;;;1.60;;
9906;SDS011;4992;51.628;6.664;2023-07-13T00:17:12;6.15;;;1.70;;
9906;SDS011;4992;51.628;6.664;2023-07-13T00:19:38;4.03;;;1.50;;
9906;SDS011;4992;51.628;6.664;2023-07-13T00:22:04;6.35;;;2.20;;
9906;SDS011;4992;51.628;6.664;2023-07-13T00:24:30;3.58;;;1.50;;
9906;SDS011;4992;51.628;6.664;2023-07-13T00:26:56;5.80;;;1.70;;
9906;SDS011;4992;51.628;6.664;2023-07-13T00:29:22;3.75;;;1.38;;
9906;SDS011;4992;51.628;6.664;2023-07-13T00:31:48;5.13;;;1.52;;
9906;SDS011;4992;51.628;6.664;2023-07-13T00:34:14;3.78;;;1.70;;
9906;SDS011;4992;51.628;6.664;2023-07-13T00:36:40;3.92;;;1.45;;
9906;SDS011;4992;51.628;6.664;2023-07-13T00:39:06;3.00;;;1.20;;
9906;SDS011;4992;51.628;6.664;2023-07-13T00:41:32;5.13;;;1.30;;
9906;SDS011;4992;51.628;6.664;2023-07-13T00:43:58;4.00;;;1.33;;
9906;SDS011;4992;51.628;6.664;2023-07-13T00:46:25;4.32;;;1.50;;
9906;SDS011;4992;51.628;6.664;2023-07-13T00:48:52;3.00;;;1.13;;
9906;SDS011;4992;51.628;6.664;2023-07-13T00:51:20;6.57;;;1.85;;
9906;SDS011;4992;51.628;6.664;2023-07-13T00:53:47;2.90;;;1.52;;
9906;SDS011;4992;51.628;6.664;2023-07-13T00:56:13;4.78;;;1.13;;
9906;SDS011;4992;51.628;6.664;2023-07-13T00:58:40;4.85;;;1.23;;
9906;SDS011;4992;51.628;6.664;2023-07-13T01:01:06;3.67;;;1.35;;
9906;SDS011;4992;51.628;6.664;2023-07-13T01:03:32;2.25;;;1.20;;
9906;SDS011;4992;51.628;6.664;2023-07-13T01:05:58;2.95;;;1.10;;
9906;SDS011;4992;51.628;6.664;2023-07-13T01:08:24;4.60;;;1.15;;
9906;SDS011;4992;51.628;6.664;2023-07-13T01:10:50;3.72;;;1.20;;
9906;SDS011;4992;51.628;6.664;2023-07-13T01:13:16;6.25;;;1.10;;
9906;SDS011;4992;51.628;6.664;2023-07-13T01:15:43;2.50;;;1.00;;
9906;SDS011;4992;51.628;6.664;2023-07-13T01:18:10;5.50;;;1.58;;
9906;SDS011;4992;51.628;6.664;2023-07-13T01:20:37;5.60;;;1.48;;
9906;SDS011;4992;51.628;6.664;2023-07-13T01:23:07;3.45;;;1.08;;
9906;SDS011;4992;51.628;6.664;2023-07-13T01:25:34;5.32;;;1.80;;
9906;SDS011;4992;51.628;6.664;2023-07-13T01:28:00;4.35;;;1.40;;
9906;SDS011;4992;51.628;6.664;2023-07-13T01:30:26;5.53;;;1.35;;
9906;SDS011;4992;51.628;6.664;2023-07-13T01:32:52;4.00;;;1.20;;
9906;SDS011;4992;51.628;6.664;2023-07-13T01:35:18;4.15;;;1.20;;
9906;SDS011;4992;51.628;6.664;2023-07-13T01:37:44;6.10;;;1.27;;
9906;SDS011;4992;51.628;6.664;2023-07-13T01:40:10;2.22;;;1.38;;
9906;SDS011;4992;51.628;6.664;2023-07-13T01:42:37;2.83;;;1.13;;
9906;SDS011;4992;51.628;6.664;2023-07-13T01:45:03;6.88;;;1.50;;
9906;SDS011;4992;51.628;6.664;2023-07-13T01:47:29;2.72;;;1.05;;
9906;SDS011;4992;51.628;6.664;2023-07-13T01:49:56;4.05;;;1.23;;
9906;SDS011;4992;51.628;6.664;2023-07-13T01:52:22;3.35;;;1.42;;
9906;SDS011;4992;51.628;6.664;2023-07-13T01:54:47;2.97;;;1.50;;
9906;SDS011;4992;51.628;6.664;2023-07-13T01:57:13;4.10;;;1.35;;
9906;SDS011;4992;51.628;6.664;2023-07-13T01:59:39;4.95;;;1.65;;
9906;SDS011;4992;51.628;6.664;2023-07-13T02:02:05;4.95;;;1.33;;
9906;SDS011;4992;51.628;6.664;2023-07-13T02:04:31;4.78;;;1.30;;
9906;SDS011;4992;51.628;6.664;2023-07-13T02:06:57;4.22;;;1.63;;
9906;SDS011;4992;51.628;6.664;2023-07-13T02:09:23;5.90;;;1.77;;
9906;SDS011;4992;51.628;6.664;2023-07-13T02:11:49;4.28;;;1.42;;
9906;SDS011;4992;51.628;6.664;2023-07-13T02:14:15;3.15;;;1.40;;
9906;SDS011;4992;51.628;6.664;2023-07-13T02:16:42;5.00;;;1.40;;
9906;SDS011;4992;51.628;6.664;2023-07-13T02:19:08;3.40;;;1.20;;
9906;SDS011;4992;51.628;6.664;2023-07-13T02:21:34;3.15;;;1.13;;
9906;SDS011;4992;51.628;6.664;2023-07-13T02:24:00;3.30;;;1.20;;
9906;SDS011;4992;51.628;6.664;2023-07-13T02:26:26;7.35;;;1.30;;
9906;SDS011;4992;51.628;6.664;2023-07-13T02:28:52;6.97;;;1.60;;
9906;SDS011;4992;51.628;6.664;2023-07-13T02:31:18;5.18;;;1.55;;
9906;SDS011;4992;51.628;6.664;2023-07-13T02:33:44;4.28;;;1.15;;
9906;SDS011;4992;51.628;6.664;2023-07-13T02:36:10;5.82;;;1.40;;
9906;SDS011;4992;51.628;6.664;2023-07-13T02:38:36;5.57;;;1.73;;
9906;SDS011;4992;51.628;6.664;2023-07-13T02:41:03;4.30;;;1.58;;
9906;SDS011;4992;51.628;6.664;2023-07-13T02:43:29;4.30;;;1.23;;
9906;SDS011;4992;51.628;6.664;2023-07-13T02:45:55;5.32;;;1.50;;
9906;SDS011;4992;51.628;6.664;2023-07-13T02:48:21;7.47;;;1.67;;
9906;SDS011;4992;51.628;6.664;2023-07-13T02:50:47;4.30;;;1.17;;
9906;SDS011;4992;51.628;6.664;2023-07-13T02:53:13;4.78;;;1.33;;
9906;SDS011;4992;51.628;6.664;2023-07-13T02:55:39;2.22;;;0.90;;
9906;SDS011;4992;51.628;6.664;2023-07-13T02:58:06;5.55;;;1.60;;
9906;SDS011;4992;51.628;6.664;2023-07-13T03:00:32;4.30;;;1.25;;
9906;SDS011;4992;51.628;6.664;2023-07-13T03:02:58;4.22;;;1.42;;
9906;SDS011;4992;51.628;6.664;2023-07-13T03:05:25;4.00;;;1.20;;
9906;SDS011;4992;51.628;6.664;2023-07-13T03:07:50;7.90;;;2.00;;
9906;SDS011;4992;51.628;6.664;2023-07-13T03:10:16;4.38;;;1.33;;
9906;SDS011;4992;51.628;6.664;2023-07-13T03:12:42;3.67;;;1.30;;
9906;SDS011;4992;51.628;6.664;2023-07-13T03:15:08;5.45;;;1.30;;
9906;SDS011;4992;51.628;6.664;2023-07-13T03:17:35;4.65;;;1.30;;
9906;SDS011;4992;51.628;6.664;2023-07-13T03:20:01;2.63;;;1.10;;
9906;SDS011;4992;51.628;6.664;2023-07-13T03:22:27;7.00;;;1.63;;
9906;SDS011;4992;51.628;6.664;2023-07-13T03:24:54;3.67;;;1.20;;
9906;SDS011;4992;51.628;6.664;2023-07-13T03:27:20;4.15;;;1.40;;
9906;SDS011;4992;51.628;6.664;2023-07-13T03:29:46;5.00;;;1.40;;
9906;SDS011;4992;51.628;6.664;2023-07-13T03:32:12;7.07;;;1.58;;
9906;SDS011;4992;51.628;6.664;2023-07-13T03:34:38;7.18;;;1.88;;
9906;SDS011;4992;51.628;6.664;2023-07-13T03:37:04;5.20;;;1.50;;
9906;SDS011;4992;51.628;6.664;2023-07-13T03:39:30;6.55;;;1.30;;
9906;SDS011;4992;51.628;6.664;2023-07-13T03:41:56;3.88;;;1.60;;
9906;SDS011;4992;51.628;6.664;2023-07-13T03:44:22;4.07;;;1.10;;
9906;SDS011;4992;51.628;6.664;2023-07-13T03:46:48;4.80;;;1.55;;
9906;SDS011;4992;51.628;6.664;2023-07-13T03:49:14;3.80;;;1.40;;
9906;SDS011;4992;51.628;6.664;2023-07-13T03:51:40;6.47;;;1.45;;
9906;SDS011;4992;51.628;6.664;2023-07-13T03:54:06;4.65;;;1.30;;
9906;SDS011;4992;51.628;6.664;2023-07-13T03:56:31;4.18;;;1.58;;
9906;SDS011;4992;51.628;6.664;2023-07-13T03:58:58;5.50;;;1.60;;
9906;SDS011;4992;51.628;6.664;2023-07-13T04:01:25;4.00;;;1.35;;
9906;SDS011;4992;51.628;6.664;2023-07-13T04:03:51;6.45;;;1.30;;
9906;SDS011;4992;51.628;6.664;2023-07-13T04:06:18;5.60;;;1.83;;
9906;SDS011;4992;51.628;6.664;2023-07-13T04:08:49;5.22;;;1.58;;
9906;SDS011;4992;51.628;6.664;2023-07-13T04:11:16;5.57;;;1.50;;
9906;SDS011;4992;51.628;6.664;2023-07-13T04:13:42;3.05;;;1.45;;
9906;SDS011;4992;51.628;6.664;2023-07-13T04:16:09;6.72;;;1.80;;
9906;SDS011;4992;51.628;6.664;2023-07-13T04:18:35;2.85;;;1.45;;
9906;SDS011;4992;51.628;6.664;2023-07-13T04:21:01;5.00;;;1.70;;
9906;SDS011;4992;51.628;6.664;2023-07-13T04:23:27;4.53;;;1.30;;
9906;SDS011;4992;51.628;6.664;2023-07-13T04:25:53;5.50;;;1.50;;
9906;SDS011;4992;51.628;6.664;2023-07-13T04:28:19;5.25;;;1.88;;
9906;SDS011;4992;51.628;6.664;2023-07-13T04:30:46;5.22;;;1.92;;
9906;SDS011;4992;51.628;6.664;2023-07-13T04:33:12;5.25;;;1.60;;
9906;SDS011;4992;51.628;6.664;2023-07-13T04:35:38;6.85;;;1.55;;
9906;SDS011;4992;51.628;6.664;2023-07-13T04:38:04;6.63;;;1.60;;
9906;SDS011;4992;51.628;6.664;2023-07-13T04:40:30;5.95;;;1.58;;
9906;SDS011;4992;51.628;6.664;2023-07-13T04:42:56;6.30;;;1.88;;
9906;SDS011;4992;51.628;6.664;2023-07-13T04:45:24;4.65;;;1.55;;
9906;SDS011;4992;51.628;6.664;2023-07-13T04:47:50;5.80;;;1.85;;
9906;SDS011;4992;51.628;6.664;2023-07-13T04:50:16;6.40;;;1.92;;
9906;SDS011;4992;51.628;6.664;2023-07-13T04:52:45;4.28;;;1.55;;
9906;SDS011;4992;51.628;6.664;2023-07-13T04:55:11;6.20;;;1.95;;
9906;SDS011;4992;51.628;6.664;2023-07-13T04:57:37;6.35;;;1.90;;
9906;SDS011;4992;51.628;6.664;2023-07-13T05:00:04;4.82;;;1.63;;
9906;SDS011;4992;51.628;6.664;2023-07-13T05:02:30;5.07;;;1.65;;
9906;SDS011;4992;51.628;6.664;2023-07-13T05:04:57;7.45;;;1.83;;
9906;SDS011;4992;51.628;6.664;2023-07-13T05:07:23;7.97;;;1.95;;
9906;SDS011;4992;51.628;6.664;2023-07-13T05:09:49;6.13;;;2.15;;
9906;SDS011;4992;51.628;6.664;2023-07-13T05:12:15;3.28;;;1.60;;
9906;SDS011;4992;51.628;6.664;2023-07-13T05:14:41;9.88;;;1.85;;
9906;SDS011;4992;51.628;6.664;2023-07-13T05:17:07;7.35;;;2.25;;
9906;SDS011;4992;51.628;6.664;2023-07-13T05:19:33;4.47;;;2.03;;
9906;SDS011;4992;51.628;6.664;2023-07-13T05:21:59;5.30;;;2.55;;
9906;SDS011;4992;51.628;6.664;2023-07-13T05:24:26;6.60;;;2.15;;
9906;SDS011;4992;51.628;6.664;2023-07-13T05:26:52;4.90;;;1.90;;
9906;SDS011;4992;51.628;6.664;2023-07-13T05:29:18;6.35;;;2.60;;
9906;SDS011;4992;51.628;6.664;2023-07-13T05:31:44;8.30;;;2.50;;
9906;SDS011;4992;51.628;6.664;2023-07-13T05:34:10;7.10;;;2.30;;
9906;SDS011;4992;51.628;6.664;2023-07-13T05:36:36;7.05;;;2.17;;
9906;SDS011;4992;51.628;6.664;2023-07-13T05:39:03;9.60;;;2.67;;
9906;SDS011;4992;51.628;6.664;2023-07-13T05:41:29;7.55;;;2.33;;
9906;SDS011;4992;51.628;6.664;2023-07-13T05:43:55;6.88;;;2.65;;
9906;SDS011;4992;51.628;6.664;2023-07-13T05:46:21;7.07;;;2.30;;
9906;SDS011;4992;51.628;6.664;2023-07-13T05:48:47;10.32;;;3.05;;
9906;SDS011;4992;51.628;6.664;2023-07-13T05:51:13;11.65;;;3.08;;
9906;SDS011;4992;51.628;6.664;2023-07-13T05:53:39;12.98;;;3.03;;
9906;SDS011;4992;51.628;6.664;2023-07-13T05:56:05;7.38;;;3.00;;
9906;SDS011;4992;51.628;6.664;2023-07-13T05:58:31;5.10;;;2.67;;
9906;SDS011;4992;51.628;6.664;2023-07-13T06:01:08;9.82;;;2.72;;
9906;SDS011;4992;51.628;6.664;2023-07-13T06:03:35;10.10;;;3.00;;
9906;SDS011;4992;51.628;6.664;2023-07-13T06:06:03;8.02;;;3.05;;
9906;SDS011;4992;51.628;6.664;2023-07-13T06:08:29;10.43;;;2.35;;
9906;SDS011;4992;51.628;6.664;2023-07-13T06:11:01;15.00;;;3.95;;
9906;SDS011;4992;51.628;6.664;2023-07-13T06:13:27;7.10;;;3.15;;
9906;SDS011;4992;51.628;6.664;2023-07-13T06:15:53;8.73;;;3.75;;
9906;SDS011;4992;51.628;6.664;2023-07-13T06:18:18;10.65;;;3.25;;
9906;SDS011;4992;51.628;6.664;2023-07-13T06:20:44;8.45;;;2.97;;
9906;SDS011;4992;51.628;6.664;2023-07-13T06:23:10;12.35;;;3.67;;
9906;SDS011;4992;51.628;6.664;2023-07-13T06:25:36;7.03;;;3.53;;
9906;SDS011;4992;51.628;6.664;2023-07-13T06:28:02;7.22;;;3.35;;
9906;SDS011;4992;51.628;6.664;2023-07-13T06:30:28;8.90;;;3.85;;
9906;SDS011;4992;51.628;6.664;2023-07-13T06:32:54;9.20;;;3.72;;
9906;SDS011;4992;51.628;6.664;2023-07-13T06:35:20;8.38;;;3.58;;
9906;SDS011;4992;51.628;6.664;2023-07-13T06:37:46;9.95;;;3.47;;
9906;SDS011;4992;51.628;6.664;2023-07-13T06:40:12;8.15;;;4.07;;
9906;SDS011;4992;51.628;6.664;2023-07-13T06:42:38;8.60;;;4.30;;
9906;SDS011;4992;51.628;6.664;2023-07-13T06:45:04;7.78;;;4.50;;
9906;SDS011;4992;51.628;6.664;2023-07-13T06:47:30;11.80;;;5.00;;
9906;SDS011;4992;51.628;6.664;2023-07-13T06:49:57;9.77;;;4.15;;
9906;SDS011;4992;51.628;6.664;2023-07-13T06:52:23;12.50;;;4.72;;
9906;SDS011;4992;51.628;6.664;2023-07-13T06:54:49;15.20;;;4.47;;
9906;SDS011;4992;51.628;6.664;2023-07-13T06:57:15;12.93;;;3.95;;
9906;SDS011;4992;51.628;6.664;2023-07-13T06:59:40;9.07;;;3.97;;
9906;SDS011;4992;51.628;6.664;2023-07-13T07:02:08;10.43;;;4.25;;
9906;SDS011;4992;51.628;6.664;2023-07-13T07:04:34;9.80;;;4.40;;
9906;SDS011;4992;51.628;6.664;2023-07-13T07:07:00;12.30;;;4.50;;
9906;SDS011;4992;51.628;6.664;2023-07-13T07:09:26;9.15;;;4.40;;
9906;SDS011;4992;51.628;6.664;2023-07-13T07:11:54;9.80;;;5.07;;
9906;SDS011;4992;51.628;6.664;2023-07-13T07:14:20;9.38;;;4.00;;
9906;SDS011;4992;51.628;6.664;2023-07-13T07:16:46;14.20;;;4.13;;
9906;SDS011;4992;51.628;6.664;2023-07-13T07:19:12;14.18;;;5.32;;
9906;SDS011;4992;51.628;6.664;2023-07-13T07:21:38;8.75;;;4.05;;
9906;SDS011;4992;51.628;6.664;2023-07-13T07:24:04;11.52;;;4.13;;
9906;SDS011;4992;51.628;6.664;2023-07-13T07:26:31;10.10;;;4.10;;
9906;SDS011;4992;51.628;6.664;2023-07-13T07:28:57;8.50;;;3.65;;
9906;SDS011;4992;51.628;6.664;2023-07-13T07:31:24;10.50;;;3.60;;
9906;SDS011;4992;51.628;6.664;2023-07-13T07:33:50;8.75;;;3.53;;
9906;SDS011;4992;51.628;6.664;2023-07-13T07:36:16;11.00;;;4.28;;
9906;SDS011;4992;51.628;6.664;2023-07-13T07:38:42;8.52;;;3.40;;
9906;SDS011;4992;51.628;6.664;2023-07-13T07:41:08;8.18;;;3.15;;
9906;SDS011;4992;51.628;6.664;2023-07-13T07:43:35;9.57;;;4.10;;
9906;SDS011;4992;51.628;6.664;2023-07-13T07:46:01;7.72;;;3.30;;
9906;SDS011;4992;51.628;6.664;2023-07-13T07:48:27;8.95;;;3.38;;
9906;SDS011;4992;51.628;6.664;2023-07-13T07:50:52;9.60;;;3.90;;
9906;SDS011;4992;51.628;6.664;2023-07-13T07:53:19;11.05;;;4.03;;
9906;SDS011;4992;51.628;6.664;2023-07-13T07:55:45;6.43;;;3.47;;
9906;SDS011;4992;51.628;6.664;2023-07-13T07:58:11;9.05;;;4.13;;
9906;SDS011;4992;51.628;6.664;2023-07-13T08:00:37;7.57;;;3.55;;
9906;SDS011;4992;51.628;6.664;2023-07-13T08:03:03;9.50;;;3.40;;
9906;SDS011;4992;51.628;6.664;2023-07-13T08:05:29;12.02;;;4.10;;
9906;SDS011;4992;51.628;6.664;2023-07-13T08:07:55;12.38;;;3.65;;
9906;SDS011;4992;51.628;6.664;2023-07-13T08:10:21;10.80;;;3.42;;
9906;SDS011;4992;51.628;6.664;2023-07-13T08:12:47;7.35;;;3.80;;
9906;SDS011;4992;51.628;6.664;2023-07-13T08:15:14;8.05;;;3.13;;
9906;SDS011;4992;51.628;6.664;2023-07-13T08:17:40;9.38;;;3.33;;
9906;SDS011;4992;51.628;6.664;2023-07-13T08:20:06;10.82;;;3.83;;
9906;SDS011;4992;51.628;6.664;2023-07-13T08:22:34;9.55;;;3.72;;
9906;SDS011;4992;51.628;6.664;2023-07-13T08:25:00;7.63;;;3.30;;
9906;SDS011;4992;51.628;6.664;2023-07-13T08:27:27;8.25;;;3.67;;
9906;SDS011;4992;51.628;6.664;2023-07-13T08:29:53;6.30;;;2.75;;
9906;SDS011;4992;51.628;6.664;2023-07-13T08:32:19;15.77;;;4.13;;
9906;SDS011;4992;51.628;6.664;2023-07-13T08:34:45;6.63;;;3.13;;
9906;SDS011;4992;51.628;6.664;2023-07-13T08:37:12;7.80;;;2.95;;
9906;SDS011;4992;51.628;6.664;2023-07-13T08:39:38;6.50;;;3.30;;
9906;SDS011;4992;51.628;6.664;2023-07-13T08:42:11;7.68;;;2.63;;
9906;SDS011;4992;51.628;6.664;2023-07-13T08:44:54;7.15;;;2.80;;
9906;SDS011;4992;51.628;6.664;2023-07-13T08:47:23;7.70;;;3.10;;
9906;SDS011;4992;51.628;6.664;2023-07-13T08:49:49;10.65;;;3.22;;
9906;SDS011;4992;51.628;6.664;2023-07-13T08:52:37;7.22;;;2.70;;
9906;SDS011;4992;51.628;6.664;2023-07-13T08:55:04;7.22;;;2.50;;
9906;SDS011;4992;51.628;6.664;2023-07-13T08:57:33;4.95;;;2.90;;
9906;SDS011;4992;51.628;6.664;2023-07-13T09:00:00;7.43;;;2.50;;
9906;SDS011;4992;51.628;6.664;2023-07-13T09:02:45;7.07;;;2.40;;
9906;SDS011;4992;51.628;6.664;2023-07-13T09:05:22;5.82;;;2.58;;
9906;SDS011;4992;51.628;6.664;2023-07-13T09:08:00;7.60;;;2.80;;
9906;SDS011;4992;51.628;6.664;2023-07-13T09:10:28;7.68;;;2.83;;
9906;SDS011;4992;51.628;6.664;2023-07-13T09:15:57;8.63;;;2.75;;
9906;SDS011;4992;51.628;6.664;2023-07-13T09:18:27;4.80;;;2.47;;
9906;SDS011;4992;51.628;6.664;2023-07-13T09:20:54;6.95;;;3.17;;
9906;SDS011;4992;51.628;6.664;2023-07-13T09:23:23;6.32;;;2.83;;
9906;SDS011;4992;51.628;6.664;2023-07-13T09:25:51;10.27;;;2.55;;
9906;SDS011;4992;51.628;6.664;2023-07-13T09:28:29;7.88;;;2.70;;
9906;SDS011;4992;51.628;6.664;2023-07-13T09:31:00;5.50;;;2.22;;
9906;SDS011;4992;51.628;6.664;2023-07-13T09:33:27;5.35;;;2.50;;
9906;SDS011;4992;51.628;6.664;2023-07-13T09:35:55;8.27;;;3.08;;
9906;SDS011;4992;51.628;6.664;2023-07-13T09:38:23;7.63;;;2.60;;
9906;SDS011;4992;51.628;6.664;2023-07-13T09:43:24;5.63;;;2.33;;
9906;SDS011;4992;51.628;6.664;2023-07-13T09:45:50;7.22;;;3.10;;
9906;SDS011;4992;51.628;6.664;2023-07-13T09:48:16;5.35;;;2.70;;
9906;SDS011;4992;51.628;6.664;2023-07-13T09:50:43;9.60;;;3.40;;
9906;SDS011;4992;51.628;6.664;2023-07-13T09:53:13;8.65;;;3.17;;
9906;SDS011;4992;51.628;6.664;2023-07-13T09:55:40;7.40;;;2.72;;
9906;SDS011;4992;51.628;6.664;2023-07-13T09:58:20;8.27;;;3.17;;
9906;SDS011;4992;51.628;6.664;2023-07-13T10:00:55;5.00;;;2.60;;
9906;SDS011;4992;51.628;6.664;2023-07-13T10:03:22;5.65;;;2.47;;
9906;SDS011;4992;51.628;6.664;2023-07-13T10:05:49;6.85;;;2.75;;
9906;SDS011;4992;51.628;6.664;2023-07-13T10:11:00;8.15;;;3.00;;
9906;SDS011;4992;51.628;6.664;2023-07-13T10:15:53;5.85;;;2.55;;
9906;SDS011;4992;51.628;6.664;2023-07-13T10:18:20;7.95;;;2.55;;
9906;SDS011;4992;51.628;6.664;2023-07-13T10:20:46;10.20;;;2.85;;
9906;SDS011;4992;51.628;6.664;2023-07-13T10:23:15;5.90;;;2.55;;
9906;SDS011;4992;51.628;6.664;2023-07-13T10:25:43;6.38;;;2.40;;
9906;SDS011;4992;51.628;6.664;2023-07-13T10:28:26;7.03;;;2.45;;
9906;SDS011;4992;51.628;6.664;2023-07-13T10:30:52;5.60;;;1.98;;
9906;SDS011;4992;51.628;6.664;2023-07-13T10:33:19;5.25;;;2.42;;
9906;SDS011;4992;51.628;6.664;2023-07-13T10:35:47;4.45;;;1.83;;
9906;SDS011;4992;51.628;6.664;2023-07-13T10:38:15;5.93;;;2.28;;
9906;SDS011;4992;51.628;6.664;2023-07-13T10:40:54;6.05;;;2.40;;
9906;SDS011;4992;51.628;6.664;2023-07-13T10:43:23;7.10;;;1.95;;
9906;SDS011;4992;51.628;6.664;2023-07-13T10:45:52;5.20;;;2.22;;
9906;SDS011;4992;51.628;6.664;2023-07-13T10:48:19;7.07;;;1.45;;
9906;SDS011;4992;51.628;6.664;2023-07-13T10:50:47;3.75;;;1.70;;
9906;SDS011;4992;51.628;6.664;2023-07-13T10:53:30;8.40;;;1.92;;
9906;SDS011;4992;51.628;6.664;2023-07-13T10:56:04;3.90;;;1.30;;
9906;SDS011;4992;51.628;6.664;2023-07-13T10:58:40;4.47;;;1.45;;
9906;SDS011;4992;51.628;6.664;2023-07-13T11:01:14;4.65;;;2.08;;
9906;SDS011;4992;51.628;6.664;2023-07-13T11:06:10;6.15;;;1.88;;
9906;SDS011;4992;51.628;6.664;2023-07-13T11:08:38;4.13;;;1.83;;
9906;SDS011;4992;51.628;6.664;2023-07-13T11:11:36;3.17;;;1.42;;
9906;SDS011;4992;51.628;6.664;2023-07-13T11:14:04;5.22;;;1.85;;
9906;SDS011;4992;51.628;6.664;2023-07-13T11:16:43;3.17;;;1.27;;
9906;SDS011;4992;51.628;6.664;2023-07-13T11:24:28;3.22;;;1.45;;
9906;SDS011;4992;51.628;6.664;2023-07-13T11:26:55;4.30;;;1.52;;
9906;SDS011;4992;51.628;6.664;2023-07-13T11:29:33;4.90;;;1.67;;
9906;SDS011;4992;51.628;6.664;2023-07-13T11:32:20;3.33;;;1.70;;
9906;SDS011;4992;51.628;6.664;2023-07-13T11:34:47;3.70;;;1.40;;
9906;SDS011;4992;51.628;6.664;2023-07-13T11:37:13;5.47;;;1.67;;
9906;SDS011;4992;51.628;6.664;2023-07-13T11:39:41;3.65;;;1.38;;
9906;SDS011;4992;51.628;6.664;2023-07-13T11:42:10;3.85;;;1.75;;
9906;SDS011;4992;51.628;6.664;2023-07-13T11:44:41;4.25;;;1.75;;
9906;SDS011;4992;51.628;6.664;2023-07-13T11:47:08;5.63;;;1.38;;
9906;SDS011;4992;51.628;6.664;2023-07-13T11:49:42;5.03;;;1.80;;
9906;SDS011;4992;51.628;6.664;2023-07-13T11:52:16;3.00;;;1.05;;
9906;SDS011;4992;51.628;6.664;2023-07-13T11:54:46;3.13;;;1.20;;
9906;SDS011;4992;51.628;6.664;2023-07-13T11:57:23;4.38;;;1.33;;
9906;SDS011;4992;51.628;6.664;2023-07-13T11:59:50;2.65;;;1.23;;
9906;SDS011;4992;51.628;6.664;2023-07-13T12:02:22;3.70;;;1.13;;
9906;SDS011;4992;51.628;6.664;2023-07-13T12:04:51;2.33;;;1.10;;
9906;SDS011;4992;51.628;6.664;2023-07-13T12:07:18;3.08;;;1.05;;
9906;SDS011;4992;51.628;6.664;2023-07-13T12:09:44;2.60;;;1.10;;
9906;SDS011;4992;51.628;6.664;2023-07-13T12:12:14;3.33;;;1.27;;
9906;SDS011;4992;51.628;6.664;2023-07-13T12:14:40;4.28;;;1.65;;
9906;SDS011;4992;51.628;6.664;2023-07-13T12:17:15;5.63;;;1.65;;
9906;SDS011;4992;51.628;6.664;2023-07-13T12:19:41;3.17;;;1.27;;
9906;SDS011;4992;51.628;6.664;2023-07-13T12:22:08;3.38;;;1.20;;
9906;SDS011;4992;51.628;6.664;2023-07-13T12:24:36;3.97;;;1.13;;
9906;SDS011;4992;51.628;6.664;2023-07-13T12:27:03;4.22;;;1.48;;
9906;SDS011;4992;51.628;6.664;2023-07-13T12:29:30;5.05;;;1.52;;
9906;SDS011;4992;51.628;6.664;2023-07-13T12:31:56;4.13;;;1.27;;
9906;SDS011;4992;51.628;6.664;2023-07-13T12:34:23;4.82;;;1.95;;
9906;SDS011;4992;51.628;6.664;2023-07-13T12:36:58;6.20;;;1.95;;
9906;SDS011;4992;51.628;6.664;2023-07-13T12:41:54;7.68;;;3.47;;
9906;SDS011;4992;51.628;6.664;2023-07-13T12:44:34;9.20;;;3.38;;
9906;SDS011;4992;51.628;6.664;2023-07-13T12:47:06;4.65;;;3.28;;
9906;SDS011;4992;51.628;6.664;2023-07-13T12:49:39;4.38;;;3.35;;
9906;SDS011;4992;51.628;6.664;2023-07-13T12:52:12;3.72;;;2.90;;
9906;SDS011;4992;51.628;6.664;2023-07-13T12:54:39;3.65;;;3.03;;
9906;SDS011;4992;51.628;6.664;2023-07-13T12:57:05;3.58;;;2.90;;
9906;SDS011;4992;51.628;6.664;2023-07-13T12:59:34;6.13;;;3.30;;
9906;SDS011;4992;51.628;6.664;2023-07-13T13:02:01;4.05;;;3.45;;
9906;SDS011;4992;51.628;6.664;2023-07-13T13:04:27;5.28;;;3.35;;
9906;SDS011;4992;51.628;6.664;2023-07-13T13:07:01;4.10;;;3.75;;
9906;SDS011;4992;51.628;6.664;2023-07-13T13:09:27;4.30;;;3.58;;
9906;SDS011;4992;51.628;6.664;2023-07-13T13:11:53;7.13;;;3.60;;
9906;SDS011;4992;51.628;6.664;2023-07-13T13:14:19;4.65;;;4.18;;
9906;SDS011;4992;51.628;6.664;2023-07-13T13:16:46;3.95;;;3.40;;
9906;SDS011;4992;51.628;6.664;2023-07-13T13:19:24;4.70;;;4.15;;
9906;SDS011;4992;51.628;6.664;2023-07-13T13:21:50;4.95;;;3.22;;
9906;SDS011;4992;51.628;6.664;2023-07-13T13:24:18;5.53;;;3.63;;
9906;SDS011;4992;51.628;6.664;2023-07-13T13:26:45;4.05;;;3.75;;
9906;SDS011;4992;51.628;6.664;2023-07-13T13:29:12;4.47;;;3.88;;
9906;SDS011;4992;51.628;6.664;2023-07-13T13:31:39;3.63;;;3.10;;
9906;SDS011;4992;51.628;6.664;2023-07-13T13:34:07;3.50;;;3.20;;
9906;SDS011;4992;51.628;6.664;2023-07-13T13:36:34;5.60;;;3.83;;
9906;SDS011;4992;51.628;6.664;2023-07-13T13:39:00;5.38;;;4.50;;
9906;SDS011;4992;51.628;6.664;2023-07-13T13:41:27;4.05;;;3.38;;
9906;SDS011;4992;51.628;6.664;2023-07-13T13:43:53;4.53;;;3.88;;
9906;SDS011;4992;51.628;6.664;2023-07-13T13:46:20;5.78;;;4.38;;
9906;SDS011;4992;51.628;6.664;2023-07-13T13:48:49;4.90;;;4.28;;
9906;SDS011;4992;51.628;6.664;2023-07-13T13:51:20;5.32;;;4.38;;
9906;SDS011;4992;51.628;6.664;2023-07-13T13:53:46;7.43;;;4.70;;
9906;SDS011;4992;51.628;6.664;2023-07-13T13:56:13;6.90;;;5.03;;
9906;SDS011;4992;51.628;6.664;2023-07-13T13:58:39;5.80;;;4.10;;
9906;SDS011;4992;51.628;6.664;2023-07-13T14:01:09;4.22;;;3.88;;
9906;SDS011;4992;51.628;6.664;2023-07-13T14:03:37;4.85;;;3.55;;
9906;SDS011;4992;51.628;6.664;2023-07-13T14:06:03;5.50;;;4.47;;
9906;SDS011;4992;51.628;6.664;2023-07-13T14:08:30;7.82;;;3.70;;
9906;SDS011;4992;51.628;6.664;2023-07-13T14:10:56;5.95;;;4.07;;
9906;SDS011;4992;51.628;6.664;2023-07-13T14:13:27;5.13;;;3.88;;
9906;SDS011;4992;51.628;6.664;2023-07-13T14:15:54;3.80;;;3.47;;
9906;SDS011;4992;51.628;6.664;2023-07-13T14:18:20;3.33;;;2.53;;
9906;SDS011;4992;51.628;6.664;2023-07-13T14:20:46;3.25;;;2.95;;
9906;SDS011;4992;51.628;6.664;2023-07-13T14:23:16;4.38;;;3.05;;
9906;SDS011;4992;51.628;6.664;2023-07-13T14:25:43;2.90;;;2.13;;
9906;SDS011;4992;51.628;6.664;2023-07-13T14:28:19;3.38;;;2.80;;
9906;SDS011;4992;51.628;6.664;2023-07-13T14:30:45;3.78;;;2.70;;
9906;SDS011;4992;51.628;6.664;2023-07-13T14:33:12;3.95;;;2.25;;
9906;SDS011;4992;51.628;6.664;2023-07-13T14:35:38;3.15;;;2.30;;
9906;SDS011;4992;51.628;6.664;2023-07-13T14:38:04;3.13;;;2.20;;
9906;SDS011;4992;51.628;6.664;2023-07-13T14:40:31;4.45;;;1.95;;
9906;SDS011;4992;51.628;6.664;2023-07-13T14:42:58;3.58;;;2.20;;
9906;SDS011;4992;51.628;6.664;2023-07-13T14:45:24;2.97;;;1.90;;
9906;SDS011;4992;51.628;6.664;2023-07-13T14:47:50;3.25;;;1.90;;
9906;SDS011;4992;51.628;6.664;2023-07-13T14:50:17;4.32;;;2.20;;
9906;SDS011;4992;51.628;6.664;2023-07-13T14:52:44;3.33;;;2.40;;
9906;SDS011;4992;51.628;6.664;2023-07-13T14:55:15;3.58;;;2.20;;
9906;SDS011;4992;51.628;6.664;2023-07-13T14:57:41;3.22;;;2.30;;
9906;SDS011;4992;51.628;6.664;2023-07-13T15:00:12;2.80;;;2.13;;
9906;SDS011;4992;51.628;6.664;2023-07-13T15:02:40;4.78;;;2.83;;
9906;SDS011;4992;51.628;6.664;2023-07-13T15:05:12;4.53;;;2.40;;
9906;SDS011;4992;51.628;6.664;2023-07-13T15:07:38;4.88;;;2.72;;
9906;SDS011;4992;51.628;6.664;2023-07-13T15:10:14;3.05;;;2.15;;
9906;SDS011;4992;51.628;6.664;2023-07-13T15:12:40;5.80;;;3.60;;
9906;SDS011;4992;51.628;6.664;2023-07-13T15:15:06;4.55;;;2.63;;
9906;SDS011;4992;51.628;6.664;2023-07-13T15:17:37;4.05;;;2.47;;
9906;SDS011;4992;51.628;6.664;2023-07-13T15:20:50;5.30;;;2.25;;
9906;SDS011;4992;51.628;6.664;2023-07-13T15:22:50;5.45;;;2.60;;
9906;SDS011;4992;51.628;6.664;2023-07-13T15:25:24;4.38;;;2.00;;
9906;SDS011;4992;51.628;6.664;2023-07-13T15:27:50;2.88;;;2.28;;
9906;SDS011;4992;51.628;6.664;2023-07-13T15:30:16;3.80;;;2.80;;
9906;SDS011;4992;51.628;6.664;2023-07-13T15:32:43;5.05;;;2.97;;
9906;SDS011;4992;51.628;6.664;2023-07-13T15:35:19;6.35;;;3.88;;
9906;SDS011;4992;51.628;6.664;2023-07-13T15:37:45;5.15;;;3.97;;
9906;SDS011;4992;51.628;6.664;2023-07-13T15:40:12;6.22;;;3.33;;